Terminal Aerodrome Forecast
Issued by NWS Cleveland, OH

Home | Current Version | Previous Version | Text Only | Print | Product List | Glossary On
Versions: 1 2 3 4 5 6 7 8 9 10 11 12 13 14 15 16 17 18 19
000
FTUS41 KCLE 301138
TAFCAK
TAF
KCAK 301138Z 3012/0112 10008KT 6SM BR OVC035
      TEMPO 3012/3014 BKN010
     FM301500 16012G20KT P6SM BKN070
     FM301700 19015G25KT P6SM BKN150
     FM010100 19010KT P6SM OVC070=

USA.gov is the U.S. government's official web portal to all federal, state and local government web resources and services.